sensor_id;sensor_type;location;lat;lon;timestamp;P1;durP1;ratioP1;P2;durP2;ratioP2
69744;SDS011;57015;50.120;-5.168;2022-08-19T00:02:02;6.28;;;1.33;;
69744;SDS011;57015;50.120;-5.168;2022-08-19T00:04:30;11.17;;;2.30;;
69744;SDS011;57015;50.120;-5.168;2022-08-19T00:06:57;7.05;;;1.13;;
69744;SDS011;57015;50.120;-5.168;2022-08-19T00:09:23;9.20;;;1.15;;
69744;SDS011;57015;50.120;-5.168;2022-08-19T00:11:50;7.15;;;1.50;;
69744;SDS011;57015;50.120;-5.168;2022-08-19T00:14:16;8.30;;;1.80;;
69744;SDS011;57015;50.120;-5.168;2022-08-19T00:16:43;8.30;;;1.02;;
69744;SDS011;57015;50.120;-5.168;2022-08-19T00:19:10;12.65;;;2.03;;
69744;SDS011;57015;50.120;-5.168;2022-08-19T00:21:35;8.90;;;1.83;;
69744;SDS011;57015;50.120;-5.168;2022-08-19T00:24:04;8.43;;;1.50;;
69744;SDS011;57015;50.120;-5.168;2022-08-19T00:26:32;9.50;;;2.22;;
69744;SDS011;57015;50.120;-5.168;2022-08-19T00:28:58;8.60;;;2.50;;
69744;SDS011;57015;50.120;-5.168;2022-08-19T00:31:24;12.75;;;1.88;;
69744;SDS011;57015;50.120;-5.168;2022-08-19T00:33:50;12.45;;;2.15;;
69744;SDS011;57015;50.120;-5.168;2022-08-19T00:36:15;9.73;;;1.93;;
69744;SDS011;57015;50.120;-5.168;2022-08-19T00:38:41;9.27;;;1.77;;
69744;SDS011;57015;50.120;-5.168;2022-08-19T00:41:08;12.82;;;2.30;;
69744;SDS011;57015;50.120;-5.168;2022-08-19T00:43:35;8.88;;;2.00;;
69744;SDS011;57015;50.120;-5.168;2022-08-19T00:46:00;10.57;;;1.97;;
69744;SDS011;57015;50.120;-5.168;2022-08-19T00:48:29;8.63;;;2.30;;
69744;SDS011;57015;50.120;-5.168;2022-08-19T00:50:56;10.50;;;1.60;;
69744;SDS011;57015;50.120;-5.168;2022-08-19T00:53:24;7.30;;;1.97;;
69744;SDS011;57015;50.120;-5.168;2022-08-19T00:55:52;9.60;;;1.52;;
69744;SDS011;57015;50.120;-5.168;2022-08-19T00:58:20;9.70;;;1.38;;
69744;SDS011;57015;50.120;-5.168;2022-08-19T01:00:47;14.68;;;1.90;;
69744;SDS011;57015;50.120;-5.168;2022-08-19T01:03:17;7.97;;;1.50;;
69744;SDS011;57015;50.120;-5.168;2022-08-19T01:05:44;10.82;;;1.70;;
69744;SDS011;57015;50.120;-5.168;2022-08-19T01:08:10;9.67;;;1.97;;
69744;SDS011;57015;50.120;-5.168;2022-08-19T01:10:37;9.05;;;2.03;;
69744;SDS011;57015;50.120;-5.168;2022-08-19T01:13:06;9.77;;;1.50;;
69744;SDS011;57015;50.120;-5.168;2022-08-19T01:15:32;8.43;;;1.40;;
69744;SDS011;57015;50.120;-5.168;2022-08-19T01:18:00;9.40;;;1.73;;
69744;SDS011;57015;50.120;-5.168;2022-08-19T01:20:27;10.63;;;1.48;;
69744;SDS011;57015;50.120;-5.168;2022-08-19T01:22:53;8.93;;;1.10;;
69744;SDS011;57015;50.120;-5.168;2022-08-19T01:25:22;9.52;;;1.20;;
69744;SDS011;57015;50.120;-5.168;2022-08-19T01:27:50;9.13;;;1.37;;
69744;SDS011;57015;50.120;-5.168;2022-08-19T01:30:20;10.85;;;2.28;;
69744;SDS011;57015;50.120;-5.168;2022-08-19T01:32:49;3.20;;;0.60;;
69744;SDS011;57015;50.120;-5.168;2022-08-19T01:35:15;2.80;;;0.68;;
69744;SDS011;57015;50.120;-5.168;2022-08-19T01:37:43;3.35;;;0.52;;
69744;SDS011;57015;50.120;-5.168;2022-08-19T01:40:17;1.50;;;0.40;;
69744;SDS011;57015;50.120;-5.168;2022-08-19T01:42:46;1.30;;;0.22;;
69744;SDS011;57015;50.120;-5.168;2022-08-19T01:45:12;1.92;;;0.45;;
69744;SDS011;57015;50.120;-5.168;2022-08-19T01:47:38;2.57;;;0.40;;
69744;SDS011;57015;50.120;-5.168;2022-08-19T01:50:05;4.40;;;0.32;;
69744;SDS011;57015;50.120;-5.168;2022-08-19T01:52:34;5.72;;;0.32;;
69744;SDS011;57015;50.120;-5.168;2022-08-19T01:55:00;2.38;;;0.50;;
69744;SDS011;57015;50.120;-5.168;2022-08-19T01:57:26;2.17;;;0.20;;
69744;SDS011;57015;50.120;-5.168;2022-08-19T01:59:51;1.63;;;0.30;;
69744;SDS011;57015;50.120;-5.168;2022-08-19T02:02:17;1.33;;;0.22;;
69744;SDS011;57015;50.120;-5.168;2022-08-19T02:04:43;1.70;;;0.35;;
69744;SDS011;57015;50.120;-5.168;2022-08-19T02:07:08;6.77;;;0.67;;
69744;SDS011;57015;50.120;-5.168;2022-08-19T02:09:34;4.27;;;0.60;;
69744;SDS011;57015;50.120;-5.168;2022-08-19T02:11:59;3.58;;;0.50;;
69744;SDS011;57015;50.120;-5.168;2022-08-19T02:14:25;4.43;;;0.70;;
69744;SDS011;57015;50.120;-5.168;2022-08-19T02:16:50;5.63;;;0.93;;
69744;SDS011;57015;50.120;-5.168;2022-08-19T02:19:15;7.43;;;1.20;;
69744;SDS011;57015;50.120;-5.168;2022-08-19T02:21:41;11.27;;;1.57;;
69744;SDS011;57015;50.120;-5.168;2022-08-19T02:24:07;5.65;;;1.02;;
69744;SDS011;57015;50.120;-5.168;2022-08-19T02:26:32;6.93;;;1.50;;
69744;SDS011;57015;50.120;-5.168;2022-08-19T02:28:58;10.00;;;1.52;;
69744;SDS011;57015;50.120;-5.168;2022-08-19T02:31:25;5.93;;;1.40;;
69744;SDS011;57015;50.120;-5.168;2022-08-19T02:33:52;13.15;;;1.55;;
69744;SDS011;57015;50.120;-5.168;2022-08-19T02:36:18;11.00;;;1.45;;
69744;SDS011;57015;50.120;-5.168;2022-08-19T02:38:44;8.50;;;1.33;;
69744;SDS011;57015;50.120;-5.168;2022-08-19T02:41:17;13.60;;;1.63;;
69744;SDS011;57015;50.120;-5.168;2022-08-19T02:43:44;10.47;;;1.47;;
69744;SDS011;57015;50.120;-5.168;2022-08-19T02:48:46;10.32;;;1.13;;
69744;SDS011;57015;50.120;-5.168;2022-08-19T02:51:16;8.70;;;2.05;;
69744;SDS011;57015;50.120;-5.168;2022-08-19T02:53:49;7.23;;;1.20;;
69744;SDS011;57015;50.120;-5.168;2022-08-19T02:56:15;9.15;;;1.17;;
69744;SDS011;57015;50.120;-5.168;2022-08-19T02:58:41;12.43;;;1.38;;
69744;SDS011;57015;50.120;-5.168;2022-08-19T03:01:07;8.53;;;1.30;;
69744;SDS011;57015;50.120;-5.168;2022-08-19T03:03:33;8.45;;;1.35;;
69744;SDS011;57015;50.120;-5.168;2022-08-19T03:06:03;9.90;;;1.83;;
69744;SDS011;57015;50.120;-5.168;2022-08-19T03:08:29;12.48;;;1.35;;
69744;SDS011;57015;50.120;-5.168;2022-08-19T03:10:55;10.00;;;1.10;;
69744;SDS011;57015;50.120;-5.168;2022-08-19T03:13:20;9.03;;;1.00;;
69744;SDS011;57015;50.120;-5.168;2022-08-19T03:15:46;8.75;;;1.55;;
69744;SDS011;57015;50.120;-5.168;2022-08-19T03:18:13;13.13;;;1.63;;
69744;SDS011;57015;50.120;-5.168;2022-08-19T03:20:40;11.25;;;1.88;;
69744;SDS011;57015;50.120;-5.168;2022-08-19T03:23:09;7.33;;;0.90;;
69744;SDS011;57015;50.120;-5.168;2022-08-19T03:25:41;8.77;;;1.20;;
69744;SDS011;57015;50.120;-5.168;2022-08-19T03:28:10;8.88;;;1.40;;
69744;SDS011;57015;50.120;-5.168;2022-08-19T03:30:37;11.60;;;1.37;;
69744;SDS011;57015;50.120;-5.168;2022-08-19T03:33:04;10.35;;;1.25;;
69744;SDS011;57015;50.120;-5.168;2022-08-19T03:35:30;9.43;;;1.50;;
69744;SDS011;57015;50.120;-5.168;2022-08-19T03:37:55;10.53;;;1.27;;
69744;SDS011;57015;50.120;-5.168;2022-08-19T03:40:21;10.18;;;0.93;;
69744;SDS011;57015;50.120;-5.168;2022-08-19T03:42:46;8.13;;;1.08;;
69744;SDS011;57015;50.120;-5.168;2022-08-19T03:45:12;8.20;;;0.90;;
69744;SDS011;57015;50.120;-5.168;2022-08-19T03:47:37;12.50;;;1.00;;
69744;SDS011;57015;50.120;-5.168;2022-08-19T03:50:04;8.95;;;0.80;;
69744;SDS011;57015;50.120;-5.168;2022-08-19T03:52:29;7.70;;;1.00;;
69744;SDS011;57015;50.120;-5.168;2022-08-19T03:54:55;9.15;;;0.88;;
69744;SDS011;57015;50.120;-5.168;2022-08-19T03:57:20;11.13;;;0.87;;
69744;SDS011;57015;50.120;-5.168;2022-08-19T03:59:46;10.60;;;1.03;;
69744;SDS011;57015;50.120;-5.168;2022-08-19T04:02:11;7.03;;;0.90;;
69744;SDS011;57015;50.120;-5.168;2022-08-19T04:04:38;9.27;;;1.25;;
69744;SDS011;57015;50.120;-5.168;2022-08-19T04:07:05;10.02;;;1.48;;
69744;SDS011;57015;50.120;-5.168;2022-08-19T04:09:32;9.00;;;1.15;;
69744;SDS011;57015;50.120;-5.168;2022-08-19T04:11:59;9.67;;;1.00;;
69744;SDS011;57015;50.120;-5.168;2022-08-19T04:14:28;7.03;;;1.00;;
69744;SDS011;57015;50.120;-5.168;2022-08-19T04:16:55;10.00;;;1.20;;
69744;SDS011;57015;50.120;-5.168;2022-08-19T04:19:20;5.97;;;1.10;;
69744;SDS011;57015;50.120;-5.168;2022-08-19T04:21:47;10.77;;;1.05;;
69744;SDS011;57015;50.120;-5.168;2022-08-19T04:24:17;7.95;;;1.17;;
69744;SDS011;57015;50.120;-5.168;2022-08-19T04:26:43;6.95;;;1.15;;
69744;SDS011;57015;50.120;-5.168;2022-08-19T04:29:11;9.27;;;1.13;;
69744;SDS011;57015;50.120;-5.168;2022-08-19T04:31:39;5.07;;;0.80;;
69744;SDS011;57015;50.120;-5.168;2022-08-19T04:34:07;12.33;;;0.93;;
69744;SDS011;57015;50.120;-5.168;2022-08-19T04:36:36;9.18;;;1.00;;
69744;SDS011;57015;50.120;-5.168;2022-08-19T04:39:04;6.90;;;1.15;;
69744;SDS011;57015;50.120;-5.168;2022-08-19T04:41:35;4.60;;;1.00;;
69744;SDS011;57015;50.120;-5.168;2022-08-19T04:44:38;8.27;;;0.65;;
69744;SDS011;57015;50.120;-5.168;2022-08-19T04:47:04;8.57;;;0.67;;
69744;SDS011;57015;50.120;-5.168;2022-08-19T04:49:32;5.40;;;0.95;;
69744;SDS011;57015;50.120;-5.168;2022-08-19T04:51:57;8.37;;;0.90;;
69744;SDS011;57015;50.120;-5.168;2022-08-19T04:54:23;9.93;;;0.90;;
69744;SDS011;57015;50.120;-5.168;2022-08-19T04:56:50;8.63;;;0.85;;
69744;SDS011;57015;50.120;-5.168;2022-08-19T04:59:17;7.13;;;1.40;;
69744;SDS011;57015;50.120;-5.168;2022-08-19T05:01:43;5.87;;;0.97;;
69744;SDS011;57015;50.120;-5.168;2022-08-19T05:04:09;8.57;;;0.85;;
69744;SDS011;57015;50.120;-5.168;2022-08-19T05:06:34;6.80;;;1.30;;
69744;SDS011;57015;50.120;-5.168;2022-08-19T05:09:01;5.85;;;1.02;;
69744;SDS011;57015;50.120;-5.168;2022-08-19T05:11:28;8.53;;;1.00;;
69744;SDS011;57015;50.120;-5.168;2022-08-19T05:13:56;9.32;;;1.25;;
69744;SDS011;57015;50.120;-5.168;2022-08-19T05:16:22;7.03;;;0.93;;
69744;SDS011;57015;50.120;-5.168;2022-08-19T05:18:49;8.25;;;0.77;;
69744;SDS011;57015;50.120;-5.168;2022-08-19T05:21:33;6.63;;;0.60;;
69744;SDS011;57015;50.120;-5.168;2022-08-19T05:24:17;6.15;;;0.90;;
69744;SDS011;57015;50.120;-5.168;2022-08-19T05:26:44;10.45;;;0.95;;
69744;SDS011;57015;50.120;-5.168;2022-08-19T05:29:12;2.95;;;0.40;;
69744;SDS011;57015;50.120;-5.168;2022-08-19T05:31:41;4.43;;;1.02;;
69744;SDS011;57015;50.120;-5.168;2022-08-19T05:34:07;6.07;;;0.43;;
69744;SDS011;57015;50.120;-5.168;2022-08-19T05:36:36;6.37;;;0.70;;
69744;SDS011;57015;50.120;-5.168;2022-08-19T05:39:05;5.68;;;0.75;;
69744;SDS011;57015;50.120;-5.168;2022-08-19T05:41:31;9.00;;;1.15;;
69744;SDS011;57015;50.120;-5.168;2022-08-19T05:43:57;9.67;;;0.93;;
69744;SDS011;57015;50.120;-5.168;2022-08-19T05:46:23;5.97;;;0.50;;
69744;SDS011;57015;50.120;-5.168;2022-08-19T05:48:49;6.50;;;0.98;;
69744;SDS011;57015;50.120;-5.168;2022-08-19T05:51:15;5.40;;;0.80;;
69744;SDS011;57015;50.120;-5.168;2022-08-19T05:53:41;7.47;;;0.82;;
69744;SDS011;57015;50.120;-5.168;2022-08-19T05:56:08;5.32;;;0.68;;
69744;SDS011;57015;50.120;-5.168;2022-08-19T05:58:35;6.77;;;0.50;;
69744;SDS011;57015;50.120;-5.168;2022-08-19T06:01:02;7.93;;;1.20;;
69744;SDS011;57015;50.120;-5.168;2022-08-19T06:03:33;6.20;;;0.88;;
69744;SDS011;57015;50.120;-5.168;2022-08-19T06:05:59;3.35;;;0.55;;
69744;SDS011;57015;50.120;-5.168;2022-08-19T06:08:28;5.30;;;0.45;;
69744;SDS011;57015;50.120;-5.168;2022-08-19T06:10:53;7.17;;;0.90;;
69744;SDS011;57015;50.120;-5.168;2022-08-19T06:13:19;2.10;;;0.35;;
69744;SDS011;57015;50.120;-5.168;2022-08-19T06:15:45;5.17;;;0.70;;
69744;SDS011;57015;50.120;-5.168;2022-08-19T06:18:11;6.05;;;0.40;;
69744;SDS011;57015;50.120;-5.168;2022-08-19T06:20:37;3.97;;;0.70;;
69744;SDS011;57015;50.120;-5.168;2022-08-19T06:23:02;6.27;;;0.70;;
69744;SDS011;57015;50.120;-5.168;2022-08-19T06:25:28;3.50;;;0.53;;
69744;SDS011;57015;50.120;-5.168;2022-08-19T06:27:53;4.63;;;0.87;;
69744;SDS011;57015;50.120;-5.168;2022-08-19T06:30:18;9.88;;;1.15;;
69744;SDS011;57015;50.120;-5.168;2022-08-19T06:32:44;4.72;;;0.60;;
69744;SDS011;57015;50.120;-5.168;2022-08-19T06:35:09;4.27;;;0.63;;
69744;SDS011;57015;50.120;-5.168;2022-08-19T06:37:36;4.28;;;0.52;;
69744;SDS011;57015;50.120;-5.168;2022-08-19T06:40:01;4.67;;;0.50;;
69744;SDS011;57015;50.120;-5.168;2022-08-19T06:42:27;6.10;;;0.60;;
69744;SDS011;57015;50.120;-5.168;2022-08-19T06:44:52;5.23;;;1.00;;
69744;SDS011;57015;50.120;-5.168;2022-08-19T06:47:19;7.50;;;0.67;;
69744;SDS011;57015;50.120;-5.168;2022-08-19T06:49:45;2.85;;;0.45;;
69744;SDS011;57015;50.120;-5.168;2022-08-19T06:52:12;6.13;;;0.60;;
69744;SDS011;57015;50.120;-5.168;2022-08-19T06:54:39;6.80;;;0.90;;
69744;SDS011;57015;50.120;-5.168;2022-08-19T06:57:06;7.43;;;0.50;;
69744;SDS011;57015;50.120;-5.168;2022-08-19T06:59:34;5.70;;;0.40;;
69744;SDS011;57015;50.120;-5.168;2022-08-19T07:02:00;12.77;;;0.88;;
69744;SDS011;57015;50.120;-5.168;2022-08-19T07:04:30;7.47;;;0.85;;
69744;SDS011;57015;50.120;-5.168;2022-08-19T07:06:58;3.97;;;0.67;;
69744;SDS011;57015;50.120;-5.168;2022-08-19T07:09:35;8.68;;;0.95;;
69744;SDS011;57015;50.120;-5.168;2022-08-19T07:12:03;8.13;;;1.40;;
69744;SDS011;57015;50.120;-5.168;2022-08-19T07:14:30;13.15;;;0.77;;
69744;SDS011;57015;50.120;-5.168;2022-08-19T07:16:56;6.23;;;0.67;;
69744;SDS011;57015;50.120;-5.168;2022-08-19T07:19:23;10.02;;;1.02;;
69744;SDS011;57015;50.120;-5.168;2022-08-19T07:21:52;7.32;;;0.90;;
69744;SDS011;57015;50.120;-5.168;2022-08-19T07:24:18;7.13;;;0.97;;
69744;SDS011;57015;50.120;-5.168;2022-08-19T07:26:45;6.95;;;0.90;;
69744;SDS011;57015;50.120;-5.168;2022-08-19T07:29:11;10.90;;;1.08;;
69744;SDS011;57015;50.120;-5.168;2022-08-19T07:31:37;12.60;;;1.20;;
69744;SDS011;57015;50.120;-5.168;2022-08-19T07:34:08;5.63;;;1.40;;
69744;SDS011;57015;50.120;-5.168;2022-08-19T07:36:37;9.57;;;1.20;;
69744;SDS011;57015;50.120;-5.168;2022-08-19T07:39:10;11.40;;;1.88;;
69744;SDS011;57015;50.120;-5.168;2022-08-19T07:41:38;9.10;;;1.27;;
69744;SDS011;57015;50.120;-5.168;2022-08-19T07:44:03;11.03;;;1.17;;
69744;SDS011;57015;50.120;-5.168;2022-08-19T07:46:31;8.40;;;1.20;;
69744;SDS011;57015;50.120;-5.168;2022-08-19T07:48:56;11.57;;;1.27;;
69744;SDS011;57015;50.120;-5.168;2022-08-19T07:51:22;9.68;;;1.35;;
69744;SDS011;57015;50.120;-5.168;2022-08-19T07:53:48;8.40;;;1.30;;
69744;SDS011;57015;50.120;-5.168;2022-08-19T07:56:16;13.10;;;1.80;;
69744;SDS011;57015;50.120;-5.168;2022-08-19T07:58:43;13.23;;;1.40;;
69744;SDS011;57015;50.120;-5.168;2022-08-19T08:01:10;8.38;;;1.20;;
69744;SDS011;57015;50.120;-5.168;2022-08-19T08:03:38;14.00;;;1.42;;
69744;SDS011;57015;50.120;-5.168;2022-08-19T08:06:22;13.43;;;2.22;;
69744;SDS011;57015;50.120;-5.168;2022-08-19T08:09:06;10.67;;;1.13;;
69744;SDS011;57015;50.120;-5.168;2022-08-19T08:11:47;13.10;;;1.85;;
69744;SDS011;57015;50.120;-5.168;2022-08-19T08:14:23;11.60;;;1.85;;
69744;SDS011;57015;50.120;-5.168;2022-08-19T08:16:51;11.00;;;1.58;;
69744;SDS011;57015;50.120;-5.168;2022-08-19T08:19:18;11.57;;;1.47;;
69744;SDS011;57015;50.120;-5.168;2022-08-19T08:21:45;12.50;;;2.03;;
69744;SDS011;57015;50.120;-5.168;2022-08-19T08:24:11;12.95;;;1.52;;
69744;SDS011;57015;50.120;-5.168;2022-08-19T08:26:37;14.60;;;1.63;;
69744;SDS011;57015;50.120;-5.168;2022-08-19T08:29:03;13.35;;;2.03;;
69744;SDS011;57015;50.120;-5.168;2022-08-19T08:31:29;11.20;;;2.08;;
69744;SDS011;57015;50.120;-5.168;2022-08-19T08:33:54;11.23;;;1.80;;
69744;SDS011;57015;50.120;-5.168;2022-08-19T08:36:20;14.40;;;1.77;;
69744;SDS011;57015;50.120;-5.168;2022-08-19T08:38:46;15.77;;;1.88;;
69744;SDS011;57015;50.120;-5.168;2022-08-19T08:43:53;13.52;;;2.00;;
69744;SDS011;57015;50.120;-5.168;2022-08-19T08:46:29;12.23;;;2.38;;
69744;SDS011;57015;50.120;-5.168;2022-08-19T08:49:01;16.13;;;2.30;;
69744;SDS011;57015;50.120;-5.168;2022-08-19T08:51:34;14.00;;;1.40;;
69744;SDS011;57015;50.120;-5.168;2022-08-19T08:54:04;12.63;;;1.70;;
69744;SDS011;57015;50.120;-5.168;2022-08-19T08:56:31;15.18;;;1.70;;
69744;SDS011;57015;50.120;-5.168;2022-08-19T08:59:00;21.13;;;1.95;;
69744;SDS011;57015;50.120;-5.168;2022-08-19T09:01:28;19.27;;;2.88;;
69744;SDS011;57015;50.120;-5.168;2022-08-19T09:03:54;16.00;;;1.60;;
69744;SDS011;57015;50.120;-5.168;2022-08-19T09:09:18;10.85;;;1.42;;
69744;SDS011;57015;50.120;-5.168;2022-08-19T09:11:49;14.37;;;2.17;;
69744;SDS011;57015;50.120;-5.168;2022-08-19T09:17:11;19.10;;;2.17;;
69744;SDS011;57015;50.120;-5.168;2022-08-19T09:22:38;12.52;;;1.55;;
69744;SDS011;57015;50.120;-5.168;2022-08-19T09:25:06;12.27;;;1.53;;
69744;SDS011;57015;50.120;-5.168;2022-08-19T09:27:33;9.73;;;1.67;;
69744;SDS011;57015;50.120;-5.168;2022-08-19T09:30:02;6.47;;;1.38;;
69744;SDS011;57015;50.120;-5.168;2022-08-19T09:32:28;10.23;;;1.40;;
69744;SDS011;57015;50.120;-5.168;2022-08-19T09:34:53;9.90;;;1.73;;
69744;SDS011;57015;50.120;-5.168;2022-08-19T09:37:19;11.40;;;1.65;;
69744;SDS011;57015;50.120;-5.168;2022-08-19T09:39:45;12.38;;;1.42;;
69744;SDS011;57015;50.120;-5.168;2022-08-19T09:42:11;8.60;;;1.13;;
69744;SDS011;57015;50.120;-5.168;2022-08-19T09:44:39;12.88;;;1.30;;
69744;SDS011;57015;50.120;-5.168;2022-08-19T09:47:05;12.23;;;1.70;;
69744;SDS011;57015;50.120;-5.168;2022-08-19T09:49:32;10.07;;;1.52;;
69744;SDS011;57015;50.120;-5.168;2022-08-19T09:51:58;9.63;;;1.17;;
69744;SDS011;57015;50.120;-5.168;2022-08-19T09:54:24;11.32;;;1.20;;
69744;SDS011;57015;50.120;-5.168;2022-08-19T09:56:50;12.52;;;1.52;;
69744;SDS011;57015;50.120;-5.168;2022-08-19T09:59:16;9.98;;;1.08;;
69744;SDS011;57015;50.120;-5.168;2022-08-19T10:01:41;9.23;;;1.00;;
69744;SDS011;57015;50.120;-5.168;2022-08-19T10:04:07;11.90;;;1.23;;
69744;SDS011;57015;50.120;-5.168;2022-08-19T10:06:36;9.25;;;1.00;;
69744;SDS011;57015;50.120;-5.168;2022-08-19T10:09:04;11.95;;;1.35;;
69744;SDS011;57015;50.120;-5.168;2022-08-19T10:11:31;10.13;;;0.90;;
69744;SDS011;57015;50.120;-5.168;2022-08-19T10:13:57;10.38;;;1.17;;
69744;SDS011;57015;50.120;-5.168;2022-08-19T10:16:23;5.60;;;1.20;;
69744;SDS011;57015;50.120;-5.168;2022-08-19T10:18:49;8.77;;;1.40;;
69744;SDS011;57015;50.120;-5.168;2022-08-19T10:21:16;7.50;;;1.05;;
69744;SDS011;57015;50.120;-5.168;2022-08-19T10:23:45;12.15;;;1.48;;
69744;SDS011;57015;50.120;-5.168;2022-08-19T10:26:15;8.73;;;0.90;;
69744;SDS011;57015;50.120;-5.168;2022-08-19T10:28:42;12.83;;;1.77;;
69744;SDS011;57015;50.120;-5.168;2022-08-19T10:31:12;10.35;;;0.77;;
69744;SDS011;57015;50.120;-5.168;2022-08-19T10:33:40;9.83;;;1.40;;
69744;SDS011;57015;50.120;-5.168;2022-08-19T10:36:07;9.70;;;1.27;;
69744;SDS011;57015;50.120;-5.168;2022-08-19T10:38:40;7.55;;;1.38;;
69744;SDS011;57015;50.120;-5.168;2022-08-19T10:41:09;6.90;;;0.90;;
69744;SDS011;57015;50.120;-5.168;2022-08-19T10:43:39;7.53;;;1.27;;
69744;SDS011;57015;50.120;-5.168;2022-08-19T10:46:06;10.40;;;1.02;;
69744;SDS011;57015;50.120;-5.168;2022-08-19T10:48:32;9.27;;;1.25;;
69744;SDS011;57015;50.120;-5.168;2022-08-19T10:50:58;7.60;;;1.00;;
69744;SDS011;57015;50.120;-5.168;2022-08-19T10:53:42;9.45;;;1.08;;
69744;SDS011;57015;50.120;-5.168;2022-08-19T10:56:08;7.77;;;1.50;;
69744;SDS011;57015;50.120;-5.168;2022-08-19T10:58:52;8.75;;;0.88;;
69744;SDS011;57015;50.120;-5.168;2022-08-19T11:01:17;6.97;;;1.13;;
69744;SDS011;57015;50.120;-5.168;2022-08-19T11:03:43;10.05;;;1.70;;
69744;SDS011;57015;50.120;-5.168;2022-08-19T11:06:10;9.67;;;1.20;;
69744;SDS011;57015;50.120;-5.168;2022-08-19T11:08:36;10.35;;;1.90;;
69744;SDS011;57015;50.120;-5.168;2022-08-19T11:11:02;9.93;;;1.40;;
69744;SDS011;57015;50.120;-5.168;2022-08-19T11:13:33;9.35;;;1.52;;
69744;SDS011;57015;50.120;-5.168;2022-08-19T11:16:05;10.27;;;1.83;;
69744;SDS011;57015;50.120;-5.168;2022-08-19T11:18:34;15.40;;;2.42;;
69744;SDS011;57015;50.120;-5.168;2022-08-19T11:21:16;10.07;;;1.35;;
69744;SDS011;57015;50.120;-5.168;2022-08-19T11:23:44;13.90;;;2.05;;
69744;SDS011;57015;50.120;-5.168;2022-08-19T11:26:10;12.45;;;1.52;;
69744;SDS011;57015;50.120;-5.168;2022-08-19T11:28:36;12.30;;;1.50;;
69744;SDS011;57015;50.120;-5.168;2022-08-19T11:31:03;11.05;;;1.92;;
69744;SDS011;57015;50.120;-5.168;2022-08-19T11:33:29;11.80;;;1.58;;
69744;SDS011;57015;50.120;-5.168;2022-08-19T11:35:59;11.90;;;1.30;;
69744;SDS011;57015;50.120;-5.168;2022-08-19T11:38:26;14.00;;;2.00;;
69744;SDS011;57015;50.120;-5.168;2022-08-19T11:40:55;6.68;;;1.45;;
69744;SDS011;57015;50.120;-5.168;2022-08-19T11:43:23;9.13;;;1.95;;
69744;SDS011;57015;50.120;-5.168;2022-08-19T11:45:49;12.00;;;1.90;;
69744;SDS011;57015;50.120;-5.168;2022-08-19T11:48:14;8.27;;;1.30;;
69744;SDS011;57015;50.120;-5.168;2022-08-19T11:50:40;5.80;;;1.20;;
69744;SDS011;57015;50.120;-5.168;2022-08-19T11:53:08;10.73;;;1.85;;
69744;SDS011;57015;50.120;-5.168;2022-08-19T11:55:37;14.77;;;2.28;;
69744;SDS011;57015;50.120;-5.168;2022-08-19T11:58:04;12.77;;;1.88;;
69744;SDS011;57015;50.120;-5.168;2022-08-19T12:00:31;10.17;;;1.67;;
69744;SDS011;57015;50.120;-5.168;2022-08-19T12:02:58;9.80;;;1.23;;
69744;SDS011;57015;50.120;-5.168;2022-08-19T12:05:24;9.60;;;1.37;;
69744;SDS011;57015;50.120;-5.168;2022-08-19T12:07:49;11.17;;;1.63;;
69744;SDS011;57015;50.120;-5.168;2022-08-19T12:10:14;9.93;;;1.40;;
69744;SDS011;57015;50.120;-5.168;2022-08-19T12:12:40;11.70;;;1.33;;
69744;SDS011;57015;50.120;-5.168;2022-08-19T12:15:08;9.10;;;1.85;;
69744;SDS011;57015;50.120;-5.168;2022-08-19T12:17:35;13.30;;;1.80;;
69744;SDS011;57015;50.120;-5.168;2022-08-19T12:20:01;10.05;;;1.40;;
69744;SDS011;57015;50.120;-5.168;2022-08-19T12:22:27;8.50;;;1.53;;
69744;SDS011;57015;50.120;-5.168;2022-08-19T12:24:53;12.00;;;2.10;;
69744;SDS011;57015;50.120;-5.168;2022-08-19T12:27:19;8.55;;;1.27;;
69744;SDS011;57015;50.120;-5.168;2022-08-19T12:29:45;8.82;;;1.30;;
69744;SDS011;57015;50.120;-5.168;2022-08-19T12:32:10;8.75;;;1.52;;
69744;SDS011;57015;50.120;-5.168;2022-08-19T12:34:36;7.80;;;1.43;;
69744;SDS011;57015;50.120;-5.168;2022-08-19T12:37:02;6.32;;;0.98;;
69744;SDS011;57015;50.120;-5.168;2022-08-19T12:39:29;6.97;;;1.17;;
69744;SDS011;57015;50.120;-5.168;2022-08-19T12:41:56;7.88;;;1.20;;
69744;SDS011;57015;50.120;-5.168;2022-08-19T12:44:22;8.93;;;1.58;;
69744;SDS011;57015;50.120;-5.168;2022-08-19T12:46:48;7.30;;;1.27;;
69744;SDS011;57015;50.120;-5.168;2022-08-19T12:49:14;8.05;;;1.23;;
69744;SDS011;57015;50.120;-5.168;2022-08-19T12:51:40;8.30;;;1.00;;
69744;SDS011;57015;50.120;-5.168;2022-08-19T12:54:06;9.07;;;1.02;;
69744;SDS011;57015;50.120;-5.168;2022-08-19T12:56:31;6.93;;;1.50;;
69744;SDS011;57015;50.120;-5.168;2022-08-19T12:59:00;7.90;;;0.93;;
69744;SDS011;57015;50.120;-5.168;2022-08-19T13:01:27;6.97;;;1.02;;
69744;SDS011;57015;50.120;-5.168;2022-08-19T13:03:57;6.97;;;1.00;;
69744;SDS011;57015;50.120;-5.168;2022-08-19T13:06:24;6.60;;;1.85;;
69744;SDS011;57015;50.120;-5.168;2022-08-19T13:08:49;7.47;;;0.83;;
69744;SDS011;57015;50.120;-5.168;2022-08-19T13:11:15;3.97;;;0.90;;
69744;SDS011;57015;50.120;-5.168;2022-08-19T13:13:43;6.38;;;1.10;;
69744;SDS011;57015;50.120;-5.168;2022-08-19T13:16:10;7.15;;;1.25;;
69744;SDS011;57015;50.120;-5.168;2022-08-19T13:18:37;5.28;;;0.98;;
69744;SDS011;57015;50.120;-5.168;2022-08-19T13:21:04;9.57;;;1.30;;
69744;SDS011;57015;50.120;-5.168;2022-08-19T13:23:31;8.05;;;1.08;;
69744;SDS011;57015;50.120;-5.168;2022-08-19T13:25:58;6.00;;;1.00;;
69744;SDS011;57015;50.120;-5.168;2022-08-19T13:28:24;9.68;;;1.27;;
69744;SDS011;57015;50.120;-5.168;2022-08-19T13:30:50;6.77;;;0.93;;
69744;SDS011;57015;50.120;-5.168;2022-08-19T13:33:34;5.65;;;0.90;;
69744;SDS011;57015;50.120;-5.168;2022-08-19T13:36:01;11.07;;;1.20;;
69744;SDS011;57015;50.120;-5.168;2022-08-19T13:38:27;6.67;;;1.57;;
69744;SDS011;57015;50.120;-5.168;2022-08-19T13:40:53;10.15;;;0.90;;
69744;SDS011;57015;50.120;-5.168;2022-08-19T13:43:19;6.30;;;1.52;;
69744;SDS011;57015;50.120;-5.168;2022-08-19T13:45:50;7.80;;;1.30;;
69744;SDS011;57015;50.120;-5.168;2022-08-19T13:48:18;8.73;;;1.85;;
69744;SDS011;57015;50.120;-5.168;2022-08-19T13:50:44;12.50;;;1.23;;
69744;SDS011;57015;50.120;-5.168;2022-08-19T13:53:11;9.73;;;1.30;;
69744;SDS011;57015;50.120;-5.168;2022-08-19T13:55:37;7.77;;;1.30;;
69744;SDS011;57015;50.120;-5.168;2022-08-19T13:58:04;9.02;;;1.52;;
69744;SDS011;57015;50.120;-5.168;2022-08-19T14:00:33;8.07;;;1.40;;
69744;SDS011;57015;50.120;-5.168;2022-08-19T14:03:00;11.05;;;1.63;;
69744;SDS011;57015;50.120;-5.168;2022-08-19T14:05:27;6.38;;;1.20;;
69744;SDS011;57015;50.120;-5.168;2022-08-19T14:07:53;13.48;;;2.05;;
69744;SDS011;57015;50.120;-5.168;2022-08-19T14:10:19;10.93;;;2.10;;
69744;SDS011;57015;50.120;-5.168;2022-08-19T14:12:45;11.43;;;2.22;;
69744;SDS011;57015;50.120;-5.168;2022-08-19T14:15:11;16.37;;;1.50;;
69744;SDS011;57015;50.120;-5.168;2022-08-19T14:17:38;13.75;;;1.52;;
69744;SDS011;57015;50.120;-5.168;2022-08-19T14:20:04;10.98;;;1.80;;
69744;SDS011;57015;50.120;-5.168;2022-08-19T14:22:32;11.70;;;1.83;;
69744;SDS011;57015;50.120;-5.168;2022-08-19T14:24:59;10.40;;;1.50;;
69744;SDS011;57015;50.120;-5.168;2022-08-19T14:27:24;11.40;;;1.70;;
69744;SDS011;57015;50.120;-5.168;2022-08-19T14:29:50;11.77;;;2.23;;
69744;SDS011;57015;50.120;-5.168;2022-08-19T14:32:16;10.25;;;1.73;;
69744;SDS011;57015;50.120;-5.168;2022-08-19T14:34:41;10.17;;;1.77;;
69744;SDS011;57015;50.120;-5.168;2022-08-19T14:37:07;10.45;;;1.98;;
69744;SDS011;57015;50.120;-5.168;2022-08-19T14:39:34;12.10;;;1.95;;
69744;SDS011;57015;50.120;-5.168;2022-08-19T14:41:59;11.45;;;2.00;;
69744;SDS011;57015;50.120;-5.168;2022-08-19T14:44:25;7.43;;;1.77;;
69744;SDS011;57015;50.120;-5.168;2022-08-19T14:46:50;9.40;;;1.37;;